Time;durP1;ratioP1;P1;durP2;ratioP2;P2;SDS_P1;SDS_P2;PMS_P1;PMS_P2;Temp;Humidity;BMP_temperature;BMP_pressure;BME280_temperature;BME280_humidity;BME280_pressure;Samples;Min_cycle;Max_cycle;Signal;HPM_P1;HPM_P2
2022/06/18 00:00:47;;;;;;;13.52;12.18;;;;;;;17.39;73.07;95105.09;5061290;28;20485;-72
2022/06/18 00:03:12;;;;;;;14.93;12.88;;;;;;;17.35;72.84;95102.94;5072786;28;20114;-72
2022/06/18 00:05:38;;;;;;;14.75;12.15;;;;;;;17.35;72.53;95103.78;5089403;28;20062;-72
2022/06/18 00:08:05;;;;;;;13.77;12.57;;;;;;;17.35;72.55;95098.50;5070844;28;20067;-72
2022/06/18 00:10:31;;;;;;;13.98;11.50;;;;;;;17.38;71.66;95092.97;5073155;28;20028;-72
2022/06/18 00:13:40;;;;;;;12.98;11.75;;;;;;;17.36;72.01;95089.69;5072760;28;20043;-72
2022/06/18 00:16:06;;;;;;;12.73;11.45;;;;;;;17.27;72.51;95092.44;5058252;28;20522;-72
2022/06/18 00:18:32;;;;;;;12.50;11.40;;;;;;;17.26;72.12;95103.94;5070883;28;20060;-72
2022/06/18 00:20:58;;;;;;;12.95;11.57;;;;;;;17.24;71.85;95098.81;5089683;28;20035;-72
2022/06/18 00:23:24;;;;;;;12.45;11.25;;;;;;;17.20;71.66;95093.09;5072849;28;20036;-72
2022/06/18 00:25:51;;;;;;;12.10;10.93;;;;;;;17.20;71.37;95095.72;5080190;28;20025;-72
2022/06/18 00:28:27;;;;;;;12.40;11.18;;;;;;;17.17;71.53;95098.66;5035802;28;20403;-72
2022/06/18 00:30:53;;;;;;;15.18;11.23;;;;;;;17.10;71.33;95088.94;5072632;28;20055;-72
2022/06/18 00:33:18;;;;;;;12.50;11.25;;;;;;;17.12;71.45;95094.88;5058266;28;20040;-72
2022/06/18 00:35:44;;;;;;;14.00;11.85;;;;;;;17.06;72.23;95082.41;5094730;28;20032;-72
2022/06/18 00:38:32;;;;;;;12.40;11.30;;;;;;;16.98;72.44;95091.88;5093420;28;20504;-72
2022/06/18 00:40:58;;;;;;;12.75;11.43;;;;;;;16.96;72.17;95087.75;5077765;28;20052;-72
2022/06/18 00:43:28;;;;;;;12.65;11.43;;;;;;;16.97;71.44;95079.75;5070615;28;20525;-72
2022/06/18 00:45:56;;;;;;;11.55;10.48;;;;;;;16.99;71.84;95082.19;5056101;28;20054;-72
2022/06/18 00:48:44;;;;;;;12.90;11.80;;;;;;;16.92;71.65;95076.78;5056201;28;20498;-72
2022/06/18 00:51:38;;;;;;;12.07;11.05;;;;;;;16.82;72.52;95075.25;5057284;28;20395;-72
2022/06/18 00:54:30;;;;;;;11.77;10.68;;;;;;;16.69;73.24;95062.59;5071069;28;20076;-72
2022/06/18 00:56:58;;;;;;;11.95;10.95;;;;;;;16.78;73.24;95080.00;5068155;28;20367;-73
2022/06/18 00:59:30;;;;;;;11.48;10.48;;;;;;;16.71;72.88;95073.72;5091858;28;20115;-72
2022/06/18 01:01:56;;;;;;;11.65;10.65;;;;;;;16.69;72.05;95078.31;5074862;28;20036;-72
2022/06/18 01:04:27;;;;;;;12.55;11.35;;;;;;;16.63;72.79;95076.31;5075371;28;20042;-72
2022/06/18 01:07:00;;;;;;;11.65;10.38;;;;;;;16.60;73.34;95076.63;5094146;28;20031;-72
2022/06/18 01:09:25;;;;;;;11.75;10.65;;;;;;;16.59;73.00;95069.75;5092428;28;20046;-72
2022/06/18 01:11:51;;;;;;;12.90;11.32;;;;;;;16.56;73.16;95075.31;5092929;28;20024;-72
2022/06/18 01:14:16;;;;;;;12.93;10.73;;;;;;;16.50;73.18;95079.38;5094338;28;20036;-72
2022/06/18 01:16:42;;;;;;;11.70;10.70;;;;;;;16.53;73.33;95072.00;5092824;28;20440;-72
2022/06/18 01:19:10;;;;;;;12.05;10.82;;;;;;;16.49;72.87;95075.94;5091965;28;20060;-72
2022/06/18 01:21:35;;;;;;;11.65;10.55;;;;;;;16.43;73.22;95080.97;5076061;28;20035;-73
2022/06/18 01:24:17;;;;;;;13.68;10.23;;;;;;;16.37;73.07;95071.13;5094254;28;20032;-72
2022/06/18 01:26:47;;;;;;;12.35;11.18;;;;;;;16.32;73.98;95079.44;5093124;28;20032;-73
2022/06/18 01:29:12;;;;;;;11.50;10.50;;;;;;;16.31;74.14;95088.28;5075810;28;20067;-72
2022/06/18 01:31:37;;;;;;;11.77;10.60;;;;;;;16.27;73.67;95087.78;5093795;28;20020;-72
2022/06/18 01:34:04;;;;;;;12.70;11.45;;;;;;;16.19;74.14;95084.28;5062951;28;20032;-72
2022/06/18 01:36:32;;;;;;;12.15;10.95;;;;;;;16.15;74.44;95083.75;5070797;28;20056;-72
2022/06/18 01:38:58;;;;;;;11.90;10.45;;;;;;;16.21;73.97;95082.31;5075892;28;20032;-72
2022/06/18 01:44:25;;;;;;;11.32;10.35;;;;;;;16.14;73.88;95074.28;5078284;28;20420;-72
2022/06/18 01:46:52;;;;;;;11.45;10.13;;;;;;;16.17;73.94;95081.00;5056833;28;20513;-72
2022/06/18 01:49:20;;;;;;;11.10;9.88;;;;;;;16.12;73.77;95078.84;5067577;28;20071;-72
2022/06/18 01:51:47;;;;;;;11.02;9.90;;;;;;;16.14;73.25;95081.31;5075608;28;20055;-72
2022/06/18 01:54:17;;;;;;;10.63;9.63;;;;;;;16.20;72.51;95080.69;5055640;28;20044;-72
2022/06/18 01:56:44;;;;;;;10.35;9.32;;;;;;;16.17;72.39;95073.13;5071792;28;20115;-72
2022/06/18 01:59:20;;;;;;;11.30;9.27;;;;;;;16.13;73.18;95077.88;5072574;28;20429;-72
2022/06/18 02:01:45;;;;;;;11.35;9.15;;;;;;;16.11;73.17;95065.91;5092180;28;20036;-72
2022/06/18 02:04:11;;;;;;;10.57;9.57;;;;;;;16.09;72.92;95074.72;5071528;28;20051;-72
2022/06/18 02:06:37;;;;;;;13.55;9.90;;;;;;;16.09;73.28;95071.28;5054579;28;20029;-72
2022/06/18 02:09:06;;;;;;;9.93;8.98;;;;;;;16.01;72.78;95066.00;5073076;28;20041;-72
2022/06/18 02:11:31;;;;;;;10.82;9.23;;;;;;;16.03;73.29;95069.28;5071513;28;20020;-72
2022/06/18 02:14:05;;;;;;;9.68;8.68;;;;;;;16.00;73.21;95074.84;5072985;28;20116;-73
2022/06/18 02:16:34;;;;;;;10.25;9.30;;;;;;;16.00;73.45;95070.41;5071379;28;20086;-72
2022/06/18 02:18:59;;;;;;;9.88;8.98;;;;;;;15.90;73.47;95069.69;5070709;28;20503;-72
2022/06/18 02:21:25;;;;;;;10.30;9.32;;;;;;;15.94;72.70;95068.41;5055402;28;20039;-72
2022/06/18 02:23:51;;;;;;;10.43;8.82;;;;;;;15.93;72.60;95069.38;5072759;28;20037;-72
2022/06/18 02:26:17;;;;;;;9.07;8.27;;;;;;;15.98;72.46;95071.53;5070677;28;20020;-72
2022/06/18 02:28:43;;;;;;;9.68;8.77;;;;;;;15.93;72.66;95076.41;5071002;28;20036;-71
2022/06/18 02:31:16;;;;;;;9.25;8.30;;;;;;;15.87;72.94;95072.59;5054478;28;20028;-72
2022/06/18 02:33:44;;;;;;;9.45;8.52;;;;;;;15.84;72.50;95070.31;5072069;28;20048;-72
2022/06/18 02:36:23;;;;;;;9.63;8.63;;;;;;;15.70;73.46;95066.44;5074307;28;20448;-72
2022/06/18 02:38:48;;;;;;;9.00;8.10;;;;;;;15.72;73.91;95079.38;5088553;28;20246;-72
2022/06/18 02:41:14;;;;;;;11.07;8.60;;;;;;;15.68;73.61;95081.47;5070812;28;20025;-72
2022/06/18 02:43:43;;;;;;;9.65;8.65;;;;;;;15.64;73.42;95078.31;5070941;28;20461;-72
2022/06/18 02:46:08;;;;;;;9.30;8.50;;;;;;;15.55;73.45;95075.78;5070828;28;20031;-72
2022/06/18 02:48:35;;;;;;;9.02;8.23;;;;;;;15.52;73.66;95081.31;5061397;28;20041;-72
2022/06/18 02:51:00;;;;;;;8.63;7.75;;;;;;;15.48;73.91;95072.94;5070757;28;20462;-72
2022/06/18 02:53:26;;;;;;;9.50;8.60;;;;;;;15.53;73.89;95075.94;5069847;28;20064;-72
2022/06/18 02:55:53;;;;;;;8.43;7.65;;;;;;;15.55;73.52;95076.59;5071080;28;20496;-72
2022/06/18 02:58:22;;;;;;;9.18;7.95;;;;;;;15.55;73.96;95076.59;5090846;28;20043;-72
2022/06/18 03:00:53;;;;;;;10.07;8.30;;;;;;;15.56;73.80;95077.41;5074265;28;20111;-72
2022/06/18 03:03:19;;;;;;;8.88;8.07;;;;;;;15.61;73.97;95078.59;5085729;28;20482;-72
2022/06/18 03:05:44;;;;;;;9.93;8.93;;;;;;;15.63;73.69;95074.06;5071555;28;20040;-72
2022/06/18 03:08:10;;;;;;;9.55;8.15;;;;;;;15.65;73.72;95077.31;5069658;28;20032;-72
2022/06/18 03:13:20;;;;;;;9.23;8.32;;;;;;;15.72;73.79;95082.00;5071511;28;20115;-72
2022/06/18 03:15:46;;;;;;;9.68;8.77;;;;;;;15.69;73.98;95080.50;5053530;28;20020;-72
2022/06/18 03:18:11;;;;;;;9.30;8.18;;;;;;;15.69;73.88;95077.06;5071006;28;20056;-72
2022/06/18 03:20:59;;;;;;;9.55;8.52;;;;;;;15.73;74.11;95070.53;5073482;28;20107;-72
2022/06/18 03:23:25;;;;;;;9.35;7.70;;;;;;;15.76;73.66;95072.84;5070228;28;20048;-73
2022/06/18 03:25:50;;;;;;;8.52;7.80;;;;;;;15.79;73.71;95062.88;5073528;28;20036;-72
2022/06/18 03:28:17;;;;;;;8.68;7.88;;;;;;;15.81;73.27;95068.81;5078809;28;20398;-72
2022/06/18 03:30:42;;;;;;;8.65;7.85;;;;;;;15.85;72.83;95074.56;5082936;28;20039;-73
2022/06/18 03:33:08;;;;;;;8.43;7.25;;;;;;;15.89;72.62;95073.28;5081387;28;20413;-72
2022/06/18 03:35:34;;;;;;;8.18;7.38;;;;;;;15.97;72.84;95075.97;5069904;28;20028;-72
2022/06/18 03:37:59;;;;;;;8.95;7.45;;;;;;;15.97;72.94;95070.72;5071033;28;20051;-72
2022/06/18 03:40:25;;;;;;;8.68;7.20;;;;;;;16.02;73.38;95075.50;5071012;28;20036;-72
2022/06/18 03:42:52;;;;;;;8.75;7.95;;;;;;;16.05;73.28;95080.44;5069821;28;20036;-72
2022/06/18 03:45:18;;;;;;;9.05;7.53;;;;;;;16.03;74.03;95083.19;5070162;28;20074;-73
2022/06/18 03:47:43;;;;;;;8.55;7.75;;;;;;;16.06;74.25;95098.63;5069252;28;20028;-73
2022/06/18 03:50:09;;;;;;;9.52;8.52;;;;;;;16.08;73.18;95096.66;5069789;28;20032;-72
2022/06/18 03:52:34;;;;;;;10.77;9.00;;;;;;;16.02;72.21;95104.34;5069655;28;20043;-73
2022/06/18 03:55:00;;;;;;;9.80;8.70;;;;;;;15.95;72.56;95104.09;5078456;28;20077;-72
2022/06/18 03:57:27;;;;;;;11.13;8.00;;;;;;;16.01;73.70;95093.00;5089808;28;20042;-72
2022/06/18 03:59:53;;;;;;;9.70;8.45;;;;;;;16.08;74.65;95099.28;5089892;28;20024;-72
2022/06/18 04:02:18;;;;;;;10.65;8.18;;;;;;;16.12;74.55;95096.34;5090905;28;20035;-72
2022/06/18 04:04:43;;;;;;;9.15;8.25;;;;;;;16.19;74.22;95098.22;5088281;28;20035;-73
2022/06/18 04:07:14;;;;;;;10.20;7.63;;;;;;;16.32;73.42;95100.41;5088028;28;20055;-72
2022/06/18 04:09:42;;;;;;;8.20;7.40;;;;;;;16.47;74.19;95100.66;5073061;28;20032;-73
2022/06/18 04:12:09;;;;;;;9.38;7.60;;;;;;;16.65;72.45;95088.28;5082575;28;20036;-73
2022/06/18 04:14:35;;;;;;;8.93;7.22;;;;;;;16.85;72.31;95101.19;5070425;28;20030;-72
2022/06/18 04:17:02;;;;;;;8.18;7.15;;;;;;;17.02;72.53;95088.94;5070656;28;20028;-73
2022/06/18 04:19:27;;;;;;;7.32;6.53;;;;;;;17.19;68.53;95101.13;5083822;28;20048;-73
2022/06/18 04:21:53;;;;;;;8.10;6.20;;;;;;;17.45;70.02;95098.38;5089552;28;20043;-73
2022/06/18 04:24:18;;;;;;;7.63;5.93;;;;;;;17.76;67.16;95095.94;5088459;28;20035;-73
2022/06/18 04:26:44;;;;;;;7.07;6.35;;;;;;;17.96;66.74;95090.38;5070288;28;20086;-72
2022/06/18 04:29:09;;;;;;;7.00;6.30;;;;;;;18.12;67.76;95084.28;5069504;28;20071;-73
2022/06/18 04:31:35;;;;;;;7.90;6.45;;;;;;;18.24;68.06;95089.00;5052641;28;20494;-73
2022/06/18 04:34:00;;;;;;;9.00;6.32;;;;;;;18.46;64.13;95097.19;5082361;28;20032;-72
2022/06/18 04:36:29;;;;;;;6.85;6.25;;;;;;;18.63;65.83;95103.22;5090975;28;20027;-73
2022/06/18 04:38:54;;;;;;;6.40;5.80;;;;;;;18.76;62.97;95098.28;5089453;28;20043;-73
2022/06/18 04:41:20;;;;;;;6.63;5.80;;;;;;;18.75;63.49;95097.47;5090334;28;20020;-73
2022/06/18 04:43:45;;;;;;;6.55;5.90;;;;;;;18.92;64.28;95103.47;5089273;28;20047;-73
2022/06/18 04:46:11;;;;;;;8.13;6.50;;;;;;;19.06;61.95;95103.75;5089246;28;20035;-73
2022/06/18 04:48:36;;;;;;;7.13;6.25;;;;;;;19.08;60.63;95096.47;5083934;28;20041;-73
2022/06/18 04:51:01;;;;;;;9.18;5.80;;;;;;;19.25;60.81;95100.69;5059531;28;20044;-72
2022/06/18 04:53:27;;;;;;;6.07;5.50;;;;;;;19.42;59.77;95093.50;5070579;28;20029;-73
2022/06/18 04:55:52;;;;;;;9.68;5.93;;;;;;;19.58;59.69;95090.75;5070600;28;20493;-73
2022/06/18 04:58:18;;;;;;;8.35;5.70;;;;;;;19.64;60.15;95097.97;5071188;28;20475;-73
2022/06/18 05:00:44;;;;;;;6.15;5.40;;;;;;;19.73;58.96;95093.47;5074317;28;20489;-73
2022/06/18 05:03:15;;;;;;;8.60;5.60;;;;;;;19.88;58.56;95093.50;5087857;28;20040;-73
2022/06/18 05:05:41;;;;;;;6.28;5.40;;;;;;;19.99;57.84;95098.38;5078711;28;20057;-72
2022/06/18 05:08:07;;;;;;;5.70;5.18;;;;;;;20.09;58.75;95098.94;5090444;28;20036;-73
2022/06/18 05:10:32;;;;;;;5.72;5.13;;;;;;;20.24;58.28;95098.16;5089060;28;20031;-73
2022/06/18 05:12:57;;;;;;;7.57;6.55;;;;;;;20.37;57.27;95094.91;5090631;28;20028;-73
2022/06/18 05:15:23;;;;;;;7.30;4.93;;;;;;;20.46;57.37;95102.53;5076728;28;20508;-73
2022/06/18 05:17:48;;;;;;;5.75;5.05;;;;;;;20.63;57.17;95097.94;5074016;28;20063;-73
2022/06/18 05:20:16;;;;;;;6.22;4.80;;;;;;;20.75;56.41;95098.28;5075792;28;20409;-73
2022/06/18 05:22:42;;;;;;;7.85;4.70;;;;;;;20.80;54.39;95108.31;5072588;28;20131;-73
2022/06/18 05:25:09;;;;;;;5.63;4.75;;;;;;;20.86;53.54;95104.94;5055694;28;20037;-73
2022/06/18 05:27:34;;;;;;;7.32;4.43;;;;;;;20.93;53.57;95104.03;5073514;28;20032;-72
2022/06/18 05:30:00;;;;;;;5.63;4.10;;;;;;;20.98;54.38;95100.84;5054823;28;20035;-72
2022/06/18 05:32:25;;;;;;;8.13;4.47;;;;;;;21.00;52.18;95103.28;5072531;28;20029;-73
2022/06/18 05:34:51;;;;;;;5.00;4.40;;;;;;;20.86;52.67;95097.00;5078873;28;20036;-73
2022/06/18 05:37:21;;;;;;;4.35;3.95;;;;;;;20.79;53.23;95110.13;5072104;28;20032;-73
2022/06/18 05:39:47;;;;;;;4.82;4.32;;;;;;;20.66;52.90;95108.13;5073318;28;20418;-73
2022/06/18 05:42:12;;;;;;;5.43;4.30;;;;;;;20.64;54.70;95110.13;5072103;28;20036;-73
2022/06/18 05:44:38;;;;;;;4.43;4.03;;;;;;;20.68;56.49;95111.41;5073217;28;20482;-73
2022/06/18 05:47:19;;;;;;;5.25;4.00;;;;;;;20.77;55.35;95112.13;5079164;28;20100;-73
2022/06/18 05:49:44;;;;;;;4.95;4.20;;;;;;;20.79;52.65;95110.13;5065864;28;20032;-73
2022/06/18 05:52:09;;;;;;;5.88;3.75;;;;;;;20.86;51.66;95111.03;5086474;28;20036;-73
2022/06/18 05:54:35;;;;;;;4.50;4.10;;;;;;;21.03;52.32;95121.38;5071670;28;20025;-72
2022/06/18 05:57:00;;;;;;;5.55;3.75;;;;;;;21.08;51.22;95121.66;5080195;28;20017;-73
2022/06/18 05:59:26;;;;;;;5.13;3.78;;;;;;;21.17;51.47;95118.75;5072667;28;20471;-73
2022/06/18 06:01:56;;;;;;;4.90;3.80;;;;;;;21.18;49.51;95111.63;5091863;28;20028;-73
2022/06/18 06:04:22;;;;;;;5.47;3.85;;;;;;;21.22;49.63;95107.59;5089408;28;20040;-72
2022/06/18 06:06:47;;;;;;;5.65;3.85;;;;;;;21.34;50.48;95116.72;5090291;28;20028;-73
2022/06/18 06:09:13;;;;;;;4.50;3.85;;;;;;;21.51;50.31;95121.78;5078528;28;20033;-73
2022/06/18 06:11:38;;;;;;;6.47;3.80;;;;;;;21.45;49.53;95117.22;5081416;28;20032;-72
2022/06/18 06:14:04;;;;;;;6.35;4.13;;;;;;;21.59;51.57;95119.00;5081744;28;20032;-73
2022/06/18 06:16:30;;;;;;;5.40;4.03;;;;;;;21.70;50.21;95128.28;5079208;28;20046;-73
2022/06/18 06:18:55;;;;;;;6.97;4.00;;;;;;;21.74;48.95;95117.16;5076735;28;20048;-73
2022/06/18 06:21:21;;;;;;;4.72;3.83;;;;;;;21.79;48.20;95106.00;5078945;28;20029;-73
2022/06/18 06:23:46;;;;;;;5.90;3.95;;;;;;;22.03;48.70;95125.94;5079900;28;20028;-75
2022/06/18 06:26:21;;;;;;;5.25;3.63;;;;;;;22.14;49.13;95124.63;5078440;28;20028;-73
2022/06/18 06:28:47;;;;;;;4.47;3.53;;;;;;;22.29;49.42;95120.09;5078904;28;20035;-73
2022/06/18 06:31:12;;;;;;;6.50;3.70;;;;;;;22.36;47.47;95122.78;5045206;28;20107;-80
2022/06/18 06:33:39;;;;;;;5.20;3.28;;;;;;;22.43;47.68;95118.38;5072255;28;20024;-74
2022/06/18 06:36:05;;;;;;;4.13;3.30;;;;;;;22.56;47.28;95115.78;5071302;28;20016;-76
2022/06/18 06:38:30;;;;;;;5.47;3.47;;;;;;;22.65;45.82;95124.41;5054243;28;20372;-77
2022/06/18 06:40:56;;;;;;;4.57;3.60;;;;;;;22.68;46.04;95114.25;5078559;28;20032;-74
2022/06/18 06:43:22;;;;;;;6.85;3.53;;;;;;;22.79;46.13;95123.50;5061884;28;20070;-74
2022/06/18 06:45:47;;;;;;;4.68;3.53;;;;;;;22.83;44.84;95114.13;5080036;28;20028;-75
2022/06/18 06:48:12;;;;;;;5.22;3.40;;;;;;;22.83;45.51;95119.41;5078453;28;20029;-74
2022/06/18 06:50:38;;;;;;;4.03;3.63;;;;;;;22.90;45.64;95111.50;5085399;28;20062;-75
2022/06/18 06:53:04;;;;;;;5.65;3.70;;;;;;;23.00;43.56;95116.47;5084705;28;20046;-72
2022/06/18 06:58:16;;;;;;;3.83;3.40;;;;;;;23.09;43.59;95113.47;5080391;28;20323;-73
2022/06/18 07:00:46;;;;;;;6.55;3.90;;;;;;;22.89;44.53;95102.75;5063350;28;20055;-74
2022/06/18 07:03:15;;;;;;;5.47;3.90;;;;;;;23.04;45.80;95123.84;5061962;28;20131;-74
2022/06/18 07:05:41;;;;;;;8.02;3.85;;;;;;;23.15;45.67;95109.19;5078464;28;20032;-74
2022/06/18 07:08:07;;;;;;;4.88;3.80;;;;;;;23.29;46.11;95112.72;5061186;28;20028;-73
2022/06/18 07:10:32;;;;;;;7.10;3.55;;;;;;;23.39;44.65;95107.88;5079113;28;20509;-73
2022/06/18 07:12:58;;;;;;;4.88;3.50;;;;;;;23.46;44.09;95105.22;5078585;28;20036;-72
2022/06/18 07:15:23;;;;;;;5.20;3.40;;;;;;;23.56;44.27;95103.84;5080044;28;20028;-73
2022/06/18 07:17:49;;;;;;;4.00;3.60;;;;;;;23.78;43.12;95109.00;5078400;28;20048;-73
2022/06/18 07:20:18;;;;;;;5.50;3.50;;;;;;;23.85;41.94;95105.38;5080331;28;20024;-73
2022/06/18 07:22:44;;;;;;;4.28;3.63;;;;;;;23.91;42.04;95109.03;5047126;28;20485;-73
2022/06/18 07:25:10;;;;;;;5.50;3.47;;;;;;;23.96;42.12;95101.28;5078140;28;20051;-72
2022/06/18 07:27:36;;;;;;;3.97;3.28;;;;;;;23.92;41.44;95110.66;5079896;28;20162;-72
2022/06/18 07:30:02;;;;;;;4.18;3.65;;;;;;;23.88;42.76;95104.16;5076420;28;20119;-72
2022/06/18 07:32:28;;;;;;;6.93;3.60;;;;;;;23.97;41.35;95108.22;5069038;28;20038;-73
2022/06/18 07:34:53;;;;;;;5.97;3.63;;;;;;;24.03;42.50;95104.75;5071238;28;20029;-73
2022/06/18 07:37:20;;;;;;;7.15;3.70;;;;;;;24.19;41.71;95106.19;5070096;28;20090;-72
2022/06/18 07:39:46;;;;;;;5.57;3.60;;;;;;;24.28;41.45;95114.75;5070934;28;20024;-73
2022/06/18 07:42:12;;;;;;;8.32;3.75;;;;;;;24.32;40.74;95105.34;5083678;28;20057;-73
2022/06/18 07:44:37;;;;;;;5.20;3.53;;;;;;;24.37;41.16;95113.53;5071285;28;20019;-74
2022/06/18 07:47:03;;;;;;;6.22;3.85;;;;;;;24.39;41.54;95103.53;5070343;28;20040;-73
2022/06/18 07:49:29;;;;;;;7.78;3.90;;;;;;;24.47;41.43;95116.63;5070611;28;20534;-73
2022/06/18 07:51:55;;;;;;;6.28;3.65;;;;;;;24.58;42.60;95109.06;5069737;28;20079;-73
2022/06/18 07:54:21;;;;;;;5.07;3.60;;;;;;;24.67;41.55;95102.50;5084572;28;20039;-72
2022/06/18 07:56:46;;;;;;;4.25;3.33;;;;;;;24.72;40.37;95100.84;5079112;28;20025;-73
2022/06/18 07:59:12;;;;;;;4.35;3.15;;;;;;;24.81;40.41;95097.97;5061533;28;20047;-72
2022/06/18 08:01:38;;;;;;;3.92;3.03;;;;;;;24.83;38.66;95106.56;5079083;28;20029;-73
2022/06/18 08:04:04;;;;;;;5.00;3.20;;;;;;;24.81;39.94;95106.75;5079052;28;20039;-73
2022/06/18 08:06:30;;;;;;;5.20;3.20;;;;;;;24.88;39.44;95096.94;5079726;28;20029;-73
2022/06/18 08:08:55;;;;;;;4.05;3.30;;;;;;;24.93;38.73;95094.47;5077919;28;20032;-72
2022/06/18 08:11:20;;;;;;;5.50;3.20;;;;;;;24.86;38.99;95095.50;5081171;28;20028;-73
2022/06/18 08:13:46;;;;;;;5.28;3.20;;;;;;;24.83;39.19;95104.72;5081999;28;20028;-72
2022/06/18 08:16:13;;;;;;;7.32;3.50;;;;;;;24.78;39.62;95101.06;5080731;28;20407;-73
2022/06/18 08:18:39;;;;;;;5.45;3.60;;;;;;;24.81;39.96;95105.94;5077880;28;20605;-73
2022/06/18 08:21:09;;;;;;;5.95;3.58;;;;;;;24.73;39.81;95099.00;5082410;28;20024;-72
2022/06/18 08:23:35;;;;;;;6.35;3.58;;;;;;;24.65;38.81;95093.91;5089524;28;20413;-73
2022/06/18 08:26:00;;;;;;;5.55;3.45;;;;;;;24.62;39.77;95097.81;5069495;28;20029;-73
2022/06/18 08:28:26;;;;;;;4.47;3.35;;;;;;;24.59;38.84;95100.06;5069241;28;20044;-73
2022/06/18 08:30:51;;;;;;;4.80;3.80;;;;;;;24.50;40.30;95102.94;5070825;28;20032;-73
2022/06/18 08:33:17;;;;;;;5.97;3.70;;;;;;;24.53;41.04;95102.50;5058530;28;20037;-73
2022/06/18 08:35:43;;;;;;;4.90;3.67;;;;;;;24.45;40.71;95101.91;5080026;28;20021;-73
2022/06/18 08:38:08;;;;;;;6.63;3.40;;;;;;;24.44;40.67;95108.25;5062191;28;20124;-73
2022/06/18 08:41:08;;;;;;;6.80;3.42;;;;;;;24.45;40.18;95104.56;5079136;28;20405;-73
2022/06/18 08:43:54;;;;;;;5.85;3.88;;;;;;;24.52;39.29;95103.56;5070725;28;20037;-73
2022/06/18 08:46:27;;;;;;;4.57;3.50;;;;;;;24.51;40.74;95098.44;5080278;28;20058;-73
2022/06/18 08:49:12;;;;;;;4.07;3.58;;;;;;;24.47;40.44;95098.03;5090602;28;20036;-73
2022/06/18 08:51:55;;;;;;;6.10;3.88;;;;;;;24.55;40.88;95102.31;5073287;28;20032;-73
2022/06/18 08:54:26;;;;;;;9.38;3.78;;;;;;;24.60;41.08;95096.38;5093963;28;20120;-73
2022/06/18 08:57:05;;;;;;;5.78;3.50;;;;;;;24.74;42.06;95095.34;5081598;28;20024;-73
2022/06/18 09:00:24;;;;;;;5.85;3.50;;;;;;;24.87;40.92;95095.28;5073938;28;20032;-73
2022/06/18 09:02:54;;;;;;;4.20;3.33;;;;;;;24.90;40.21;95094.06;5056268;28;20045;-73
2022/06/18 09:05:31;;;;;;;4.13;3.08;;;;;;;24.93;38.98;95086.50;5064083;28;20081;-73
2022/06/18 09:08:03;;;;;;;4.95;3.38;;;;;;;24.97;41.62;95086.91;5081460;28;20059;-73
2022/06/18 09:10:43;;;;;;;3.80;3.33;;;;;;;25.07;39.58;95083.78;5080528;28;20056;-73
2022/06/18 09:13:12;;;;;;;4.95;3.40;;;;;;;25.01;39.41;95074.00;5082104;28;20036;-73
2022/06/18 09:15:41;;;;;;;3.90;3.50;;;;;;;25.04;39.88;95086.84;5080248;28;20035;-73
2022/06/18 09:18:18;;;;;;;3.67;3.17;;;;;;;24.93;40.49;95088.31;5081254;28;20114;-73
2022/06/18 09:20:52;;;;;;;4.13;3.22;;;;;;;24.86;40.63;95080.38;5040175;28;20117;-76
2022/06/18 09:23:42;;;;;;;6.85;3.88;;;;;;;24.73;40.17;95089.19;5040254;28;20434;-75
2022/06/18 09:26:13;;;;;;;3.50;3.17;;;;;;;24.54;40.00;95079.44;5065081;28;20040;-76
2022/06/18 09:28:43;;;;;;;6.40;3.10;;;;;;;24.25;41.37;95089.44;5072384;28;20047;-79
2022/06/18 09:31:12;;;;;;;;;;;;;;;24.28;42.30;95094.34;5059284;28;20028;-78
2022/06/18 09:34:05;;;;;;;4.97;3.50;;;;;;;24.14;42.99;95092.72;5083984;28;19954;-77
2022/06/18 09:36:37;;;;;;;5.90;3.10;;;;;;;24.16;41.90;95088.03;5072758;28;20082;-78
2022/06/18 09:39:18;;;;;;;3.95;2.85;;;;;;;24.06;39.94;95079.66;5045547;28;20036;-73
2022/06/18 09:41:48;;;;;;;3.03;2.72;;;;;;;24.06;39.91;95091.06;5080364;28;20028;-73
2022/06/18 09:44:18;;;;;;;3.90;3.10;;;;;;;24.03;40.99;95086.19;5061251;28;20036;-73
2022/06/18 09:46:44;;;;;;;;;;;;;;;24.08;41.01;95090.88;5054346;28;20032;-73
2022/06/18 09:49:10;;;;;;;3.58;2.90;;;;;;;24.08;41.18;95091.69;5071159;28;20444;-73
2022/06/18 09:54:32;;;;;;;4.18;3.03;;;;;;;24.17;42.82;95092.31;5071213;28;20032;-73
2022/06/18 09:56:59;;;;;;;4.97;3.55;;;;;;;24.13;44.36;95091.09;5053472;28;20033;-74
2022/06/18 09:59:32;;;;;;;7.80;3.45;;;;;;;24.19;43.62;95094.78;5053012;28;20024;-73
2022/06/18 10:01:58;;;;;;;5.50;3.20;;;;;;;24.11;43.40;95090.47;5052676;28;20021;-73
2022/06/18 10:07:20;;;;;;;5.45;3.47;;;;;;;24.13;42.11;95091.09;5070620;28;20059;-73
2022/06/18 10:09:54;;;;;;;4.35;3.45;;;;;;;24.00;42.53;95091.91;5054991;28;20029;-74
2022/06/18 10:12:21;;;;;;;3.30;2.97;;;;;;;24.02;42.93;95089.88;5055669;28;20055;-74
2022/06/18 10:14:50;;;;;;;4.90;3.55;;;;;;;24.05;42.29;95092.09;5054868;28;20028;-73
2022/06/18 10:17:47;;;;;;;6.32;3.63;;;;;;;24.06;42.05;95087.63;5055284;28;20043;-74
2022/06/18 10:20:42;;;;;;;3.80;3.40;;;;;;;24.09;42.00;95088.00;5071500;28;20048;-73
2022/06/18 10:23:19;;;;;;;3.80;3.20;;;;;;;24.04;41.31;95087.00;5071314;28;20039;-73
2022/06/18 10:26:20;;;;;;;4.03;3.60;;;;;;;23.89;43.42;95095.16;5070405;28;20075;-73
2022/06/18 10:29:00;;;;;;;3.75;3.13;;;;;;;23.93;42.42;95090.25;5071112;28;20032;-73
2022/06/18 10:32:05;;;;;;;4.45;3.72;;;;;;;23.99;43.15;95090.28;5071009;28;20037;-74
2022/06/18 10:34:33;;;;;;;6.50;3.70;;;;;;;24.02;42.75;95073.13;5033324;28;20099;-73
2022/06/18 10:37:53;;;;;;;4.80;3.47;;;;;;;24.13;42.75;95064.56;5064088;28;20064;-73
2022/06/18 10:40:21;;;;;;;5.05;3.55;;;;;;;24.31;42.94;95074.53;5049997;28;20029;-73
2022/06/18 10:42:49;;;;;;;5.20;3.50;;;;;;;24.48;43.18;95080.25;5049771;28;20526;-73
2022/06/18 10:45:41;;;;;;;5.30;3.55;;;;;;;24.50;41.35;95081.69;5060714;28;20063;-73
2022/06/18 10:48:18;;;;;;;5.35;3.45;;;;;;;24.40;41.45;95075.94;5068971;28;20040;-73
2022/06/18 10:50:46;;;;;;;6.88;3.35;;;;;;;24.46;42.12;95079.66;5054344;28;20035;-73
2022/06/18 10:53:13;;;;;;;4.60;3.63;;;;;;;24.35;42.99;95070.47;5070628;28;20028;-73
2022/06/18 10:55:39;;;;;;;5.10;3.80;;;;;;;24.29;45.58;95080.06;5053984;28;20119;-73
2022/06/18 10:58:15;;;;;;;5.22;4.10;;;;;;;23.96;46.97;95082.72;5070617;28;20020;-73
2022/06/18 11:00:42;;;;;;;5.55;4.00;;;;;;;23.87;47.00;95089.22;5070601;28;20059;-73
2022/06/18 11:03:20;;;;;;;4.22;3.83;;;;;;;23.75;46.33;95080.25;5054063;28;20107;-73
2022/06/18 11:05:46;;;;;;;4.82;4.07;;;;;;;23.76;47.36;95073.91;5070549;28;20481;-73
2022/06/18 11:08:19;;;;;;;6.10;3.53;;;;;;;23.75;45.65;95073.09;5053893;28;20490;-73
2022/06/18 11:10:56;;;;;;;4.90;4.10;;;;;;;23.69;46.34;95065.94;5071607;28;20111;-73
2022/06/18 11:13:35;;;;;;;4.55;4.15;;;;;;;23.55;47.07;95065.09;5069716;28;20032;-73
2022/06/18 11:16:23;;;;;;;4.70;3.97;;;;;;;23.45;47.45;95072.59;5070448;28;20510;-73
2022/06/18 11:18:54;;;;;;;4.70;4.30;;;;;;;23.32;49.81;95070.75;5071483;28;20056;-73
2022/06/18 11:21:39;;;;;;;4.75;4.13;;;;;;;23.16;48.87;95079.88;5071424;28;20036;-73
2022/06/18 11:24:04;;;;;;;7.45;4.18;;;;;;;22.97;47.74;95077.97;5071794;28;20032;-73
2022/06/18 11:26:30;;;;;;;6.57;4.50;;;;;;;22.87;49.60;95082.75;5070005;28;20082;-73
2022/06/18 11:29:04;;;;;;;4.68;4.28;;;;;;;22.66;49.56;95081.84;5069859;28;20043;-73
2022/06/18 11:31:33;;;;;;;4.70;4.05;;;;;;;22.53;50.60;95085.22;5054534;28;20453;-73
2022/06/18 11:33:58;;;;;;;5.18;4.63;;;;;;;22.58;51.04;95102.38;5070101;28;20029;-74
2022/06/18 11:36:37;;;;;;;7.10;4.35;;;;;;;22.65;50.62;95100.56;5071191;28;20025;-73
2022/06/18 11:39:03;;;;;;;4.93;3.65;;;;;;;22.64;49.25;95104.25;5069993;28;20068;-73
2022/06/18 11:41:35;;;;;;;4.75;3.88;;;;;;;22.67;49.49;95093.25;5053311;28;20098;-73
2022/06/18 11:44:13;;;;;;;4.90;3.90;;;;;;;22.63;49.74;95097.31;5037037;28;20039;-74
2022/06/18 11:47:28;;;;;;;5.90;3.78;;;;;;;22.57;48.99;95117.44;5070059;28;20123;-73
2022/06/18 11:49:58;;;;;;;6.32;3.92;;;;;;;;;;5027472;28;20053;-73
2022/06/18 11:52:32;;;;;;;4.78;3.88;;;;;;;22.34;49.86;95115.03;5069937;28;20033;-73
2022/06/18 11:55:16;;;;;;;6.22;4.20;;;;;;;22.41;50.15;95109.78;5070065;28;20036;-73
2022/06/18 11:57:46;;;;;;;5.35;4.05;;;;;;;22.36;49.85;95093.69;5070993;28;20036;-73